sensor_id;sensor_type;location;lat;lon;timestamp;P1;durP1;ratioP1;P2;durP2;ratioP2
55784;SDS011;41709;52.536;5.688;2022-08-19T00:01:25;7.85;;;5.20;;
55784;SDS011;41709;52.536;5.688;2022-08-19T00:03:54;5.72;;;5.07;;
55784;SDS011;41709;52.536;5.688;2022-08-19T00:06:20;5.65;;;5.10;;
55784;SDS011;41709;52.536;5.688;2022-08-19T00:08:46;6.25;;;4.63;;
55784;SDS011;41709;52.536;5.688;2022-08-19T00:11:11;5.47;;;4.97;;
55784;SDS011;41709;52.536;5.688;2022-08-19T00:13:37;5.32;;;4.70;;
55784;SDS011;41709;52.536;5.688;2022-08-19T00:16:04;7.00;;;5.78;;
55784;SDS011;41709;52.536;5.688;2022-08-19T00:18:31;7.55;;;5.40;;
55784;SDS011;41709;52.536;5.688;2022-08-19T00:20:57;6.30;;;4.88;;
55784;SDS011;41709;52.536;5.688;2022-08-19T00:23:22;5.63;;;4.85;;
55784;SDS011;41709;52.536;5.688;2022-08-19T00:25:48;8.40;;;6.05;;
55784;SDS011;41709;52.536;5.688;2022-08-19T00:28:13;5.40;;;4.90;;
55784;SDS011;41709;52.536;5.688;2022-08-19T00:30:39;7.40;;;5.45;;
55784;SDS011;41709;52.536;5.688;2022-08-19T00:33:05;8.20;;;5.22;;
55784;SDS011;41709;52.536;5.688;2022-08-19T00:35:32;6.03;;;5.07;;
55784;SDS011;41709;52.536;5.688;2022-08-19T00:37:58;6.07;;;5.40;;
55784;SDS011;41709;52.536;5.688;2022-08-19T00:40:24;6.55;;;5.13;;
55784;SDS011;41709;52.536;5.688;2022-08-19T00:42:51;5.88;;;5.28;;
55784;SDS011;41709;52.536;5.688;2022-08-19T00:45:20;8.10;;;5.40;;
55784;SDS011;41709;52.536;5.688;2022-08-19T00:47:48;8.02;;;5.57;;
55784;SDS011;41709;52.536;5.688;2022-08-19T00:50:14;6.82;;;5.55;;
55784;SDS011;41709;52.536;5.688;2022-08-19T00:55:12;9.32;;;6.30;;
55784;SDS011;41709;52.536;5.688;2022-08-19T00:57:49;8.15;;;6.20;;
55784;SDS011;41709;52.536;5.688;2022-08-19T01:00:20;8.00;;;6.50;;
55784;SDS011;41709;52.536;5.688;2022-08-19T01:02:46;8.70;;;6.32;;
55784;SDS011;41709;52.536;5.688;2022-08-19T01:05:17;9.73;;;6.43;;
55784;SDS011;41709;52.536;5.688;2022-08-19T01:07:46;7.13;;;6.28;;
55784;SDS011;41709;52.536;5.688;2022-08-19T01:10:17;8.13;;;5.95;;
55784;SDS011;41709;52.536;5.688;2022-08-19T01:12:46;7.28;;;5.85;;
55784;SDS011;41709;52.536;5.688;2022-08-19T01:15:14;10.80;;;6.60;;
55784;SDS011;41709;52.536;5.688;2022-08-19T01:17:42;7.25;;;5.82;;
55784;SDS011;41709;52.536;5.688;2022-08-19T01:20:10;6.95;;;6.25;;
55784;SDS011;41709;52.536;5.688;2022-08-19T01:22:40;6.82;;;6.13;;
55784;SDS011;41709;52.536;5.688;2022-08-19T01:25:10;8.30;;;6.28;;
55784;SDS011;41709;52.536;5.688;2022-08-19T01:27:38;8.30;;;6.35;;
55784;SDS011;41709;52.536;5.688;2022-08-19T01:30:08;7.65;;;6.88;;
55784;SDS011;41709;52.536;5.688;2022-08-19T01:32:39;7.45;;;6.55;;
55784;SDS011;41709;52.536;5.688;2022-08-19T01:35:05;8.00;;;6.90;;
55784;SDS011;41709;52.536;5.688;2022-08-19T01:37:41;9.32;;;6.30;;
55784;SDS011;41709;52.536;5.688;2022-08-19T01:40:08;7.90;;;7.05;;
55784;SDS011;41709;52.536;5.688;2022-08-19T01:42:34;8.73;;;7.15;;
55784;SDS011;41709;52.536;5.688;2022-08-19T01:45:00;8.25;;;6.78;;
55784;SDS011;41709;52.536;5.688;2022-08-19T01:47:26;8.40;;;7.50;;
55784;SDS011;41709;52.536;5.688;2022-08-19T01:49:51;6.80;;;6.10;;
55784;SDS011;41709;52.536;5.688;2022-08-19T01:52:17;8.23;;;7.30;;
55784;SDS011;41709;52.536;5.688;2022-08-19T01:54:42;7.97;;;6.88;;
55784;SDS011;41709;52.536;5.688;2022-08-19T01:57:09;8.90;;;6.35;;
55784;SDS011;41709;52.536;5.688;2022-08-19T01:59:36;7.40;;;6.70;;
55784;SDS011;41709;52.536;5.688;2022-08-19T02:02:04;9.15;;;7.05;;
55784;SDS011;41709;52.536;5.688;2022-08-19T02:04:32;9.70;;;8.53;;
55784;SDS011;41709;52.536;5.688;2022-08-19T02:06:59;11.23;;;7.53;;
55784;SDS011;41709;52.536;5.688;2022-08-19T02:09:24;7.65;;;6.72;;
55784;SDS011;41709;52.536;5.688;2022-08-19T02:11:50;7.75;;;6.95;;
55784;SDS011;41709;52.536;5.688;2022-08-19T02:14:15;8.52;;;7.10;;
55784;SDS011;41709;52.536;5.688;2022-08-19T02:16:41;7.60;;;6.80;;
55784;SDS011;41709;52.536;5.688;2022-08-19T02:19:06;8.48;;;7.32;;
55784;SDS011;41709;52.536;5.688;2022-08-19T02:21:32;10.45;;;8.05;;
55784;SDS011;41709;52.536;5.688;2022-08-19T02:23:58;10.52;;;7.65;;
55784;SDS011;41709;52.536;5.688;2022-08-19T02:26:24;10.48;;;7.40;;
55784;SDS011;41709;52.536;5.688;2022-08-19T02:28:51;8.77;;;7.40;;
55784;SDS011;41709;52.536;5.688;2022-08-19T02:31:19;7.97;;;6.85;;
55784;SDS011;41709;52.536;5.688;2022-08-19T02:33:46;9.32;;;8.13;;
55784;SDS011;41709;52.536;5.688;2022-08-19T02:36:12;8.98;;;7.57;;
55784;SDS011;41709;52.536;5.688;2022-08-19T02:38:40;11.02;;;7.93;;
55784;SDS011;41709;52.536;5.688;2022-08-19T02:41:07;9.05;;;7.65;;
55784;SDS011;41709;52.536;5.688;2022-08-19T02:43:38;11.65;;;8.38;;
55784;SDS011;41709;52.536;5.688;2022-08-19T02:46:18;10.27;;;7.85;;
55784;SDS011;41709;52.536;5.688;2022-08-19T02:48:52;9.13;;;8.23;;
55784;SDS011;41709;52.536;5.688;2022-08-19T02:51:24;9.90;;;8.20;;
55784;SDS011;41709;52.536;5.688;2022-08-19T02:53:51;10.55;;;7.82;;
55784;SDS011;41709;52.536;5.688;2022-08-19T02:56:17;8.65;;;7.72;;
55784;SDS011;41709;52.536;5.688;2022-08-19T02:58:44;8.80;;;7.80;;
55784;SDS011;41709;52.536;5.688;2022-08-19T03:01:10;10.35;;;8.15;;
55784;SDS011;41709;52.536;5.688;2022-08-19T03:03:43;9.07;;;8.00;;
55784;SDS011;41709;52.536;5.688;2022-08-19T03:06:11;8.88;;;8.00;;
55784;SDS011;41709;52.536;5.688;2022-08-19T03:08:38;8.82;;;8.00;;
55784;SDS011;41709;52.536;5.688;2022-08-19T03:11:06;9.70;;;8.70;;
55784;SDS011;41709;52.536;5.688;2022-08-19T03:13:36;9.52;;;7.70;;
55784;SDS011;41709;52.536;5.688;2022-08-19T03:16:03;8.77;;;7.68;;
55784;SDS011;41709;52.536;5.688;2022-08-19T03:18:30;9.35;;;8.35;;
55784;SDS011;41709;52.536;5.688;2022-08-19T03:20:55;8.48;;;7.60;;
55784;SDS011;41709;52.536;5.688;2022-08-19T03:23:22;11.82;;;7.47;;
55784;SDS011;41709;52.536;5.688;2022-08-19T03:25:49;9.75;;;7.90;;
55784;SDS011;41709;52.536;5.688;2022-08-19T03:28:16;10.48;;;8.70;;
55784;SDS011;41709;52.536;5.688;2022-08-19T03:30:43;10.80;;;9.18;;
55784;SDS011;41709;52.536;5.688;2022-08-19T03:33:21;8.63;;;7.60;;
55784;SDS011;41709;52.536;5.688;2022-08-19T03:35:47;8.27;;;7.47;;
55784;SDS011;41709;52.536;5.688;2022-08-19T03:38:23;9.15;;;7.70;;
55784;SDS011;41709;52.536;5.688;2022-08-19T03:40:49;10.32;;;8.68;;
55784;SDS011;41709;52.536;5.688;2022-08-19T03:43:14;9.63;;;7.65;;
55784;SDS011;41709;52.536;5.688;2022-08-19T03:45:43;11.70;;;9.10;;
55784;SDS011;41709;52.536;5.688;2022-08-19T03:48:08;9.80;;;8.35;;
55784;SDS011;41709;52.536;5.688;2022-08-19T03:50:38;11.25;;;8.63;;
55784;SDS011;41709;52.536;5.688;2022-08-19T03:53:04;11.30;;;8.98;;
55784;SDS011;41709;52.536;5.688;2022-08-19T03:55:29;11.50;;;8.25;;
55784;SDS011;41709;52.536;5.688;2022-08-19T03:57:55;10.88;;;8.70;;
55784;SDS011;41709;52.536;5.688;2022-08-19T04:00:21;10.73;;;8.63;;
55784;SDS011;41709;52.536;5.688;2022-08-19T04:02:46;9.85;;;8.00;;
55784;SDS011;41709;52.536;5.688;2022-08-19T04:05:12;10.32;;;8.30;;
55784;SDS011;41709;52.536;5.688;2022-08-19T04:07:39;9.75;;;8.48;;
55784;SDS011;41709;52.536;5.688;2022-08-19T04:10:04;10.35;;;8.65;;
55784;SDS011;41709;52.536;5.688;2022-08-19T04:12:31;10.77;;;8.48;;
55784;SDS011;41709;52.536;5.688;2022-08-19T04:14:56;11.30;;;8.65;;
55784;SDS011;41709;52.536;5.688;2022-08-19T04:17:23;14.77;;;8.77;;
55784;SDS011;41709;52.536;5.688;2022-08-19T04:19:48;11.82;;;8.93;;
55784;SDS011;41709;52.536;5.688;2022-08-19T04:22:14;9.70;;;8.70;;
55784;SDS011;41709;52.536;5.688;2022-08-19T04:24:40;10.57;;;9.32;;
55784;SDS011;41709;52.536;5.688;2022-08-19T04:27:05;11.43;;;9.10;;
55784;SDS011;41709;52.536;5.688;2022-08-19T04:29:31;11.52;;;8.98;;
55784;SDS011;41709;52.536;5.688;2022-08-19T04:31:57;10.52;;;9.15;;
55784;SDS011;41709;52.536;5.688;2022-08-19T04:34:24;10.38;;;8.65;;
55784;SDS011;41709;52.536;5.688;2022-08-19T04:36:52;12.07;;;9.30;;
55784;SDS011;41709;52.536;5.688;2022-08-19T04:39:20;10.52;;;9.23;;
55784;SDS011;41709;52.536;5.688;2022-08-19T04:41:47;11.43;;;9.02;;
55784;SDS011;41709;52.536;5.688;2022-08-19T04:44:32;9.57;;;8.57;;
55784;SDS011;41709;52.536;5.688;2022-08-19T04:47:00;10.57;;;8.85;;
55784;SDS011;41709;52.536;5.688;2022-08-19T04:49:26;10.55;;;8.57;;
55784;SDS011;41709;52.536;5.688;2022-08-19T04:51:53;11.55;;;9.50;;
55784;SDS011;41709;52.536;5.688;2022-08-19T04:54:19;11.32;;;9.63;;
55784;SDS011;41709;52.536;5.688;2022-08-19T04:56:47;12.27;;;10.43;;
55784;SDS011;41709;52.536;5.688;2022-08-19T04:59:17;11.65;;;9.73;;
55784;SDS011;41709;52.536;5.688;2022-08-19T05:01:43;11.80;;;9.13;;
55784;SDS011;41709;52.536;5.688;2022-08-19T05:04:14;10.35;;;9.15;;
55784;SDS011;41709;52.536;5.688;2022-08-19T05:06:42;12.38;;;10.00;;
55784;SDS011;41709;52.536;5.688;2022-08-19T05:09:08;13.15;;;10.60;;
55784;SDS011;41709;52.536;5.688;2022-08-19T05:11:35;13.52;;;10.27;;
55784;SDS011;41709;52.536;5.688;2022-08-19T05:14:03;10.88;;;9.52;;
55784;SDS011;41709;52.536;5.688;2022-08-19T05:16:29;11.30;;;9.43;;
55784;SDS011;41709;52.536;5.688;2022-08-19T05:18:55;15.43;;;11.52;;
55784;SDS011;41709;52.536;5.688;2022-08-19T05:21:39;11.40;;;10.30;;
55784;SDS011;41709;52.536;5.688;2022-08-19T05:24:25;14.82;;;11.10;;
55784;SDS011;41709;52.536;5.688;2022-08-19T05:26:52;14.75;;;11.05;;
55784;SDS011;41709;52.536;5.688;2022-08-19T05:29:21;11.73;;;10.52;;
55784;SDS011;41709;52.536;5.688;2022-08-19T05:31:48;12.77;;;11.35;;
55784;SDS011;41709;52.536;5.688;2022-08-19T05:34:16;13.63;;;10.15;;
55784;SDS011;41709;52.536;5.688;2022-08-19T05:36:43;11.93;;;10.60;;
55784;SDS011;41709;52.536;5.688;2022-08-19T05:39:12;12.95;;;10.77;;
55784;SDS011;41709;52.536;5.688;2022-08-19T05:41:44;14.30;;;10.75;;
55784;SDS011;41709;52.536;5.688;2022-08-19T05:44:13;12.13;;;10.50;;
55784;SDS011;41709;52.536;5.688;2022-08-19T05:46:41;14.10;;;11.25;;
55784;SDS011;41709;52.536;5.688;2022-08-19T05:49:11;12.90;;;11.38;;
55784;SDS011;41709;52.536;5.688;2022-08-19T05:51:37;18.40;;;11.18;;
55784;SDS011;41709;52.536;5.688;2022-08-19T05:54:05;13.13;;;11.07;;
55784;SDS011;41709;52.536;5.688;2022-08-19T05:56:33;14.50;;;10.98;;
55784;SDS011;41709;52.536;5.688;2022-08-19T05:59:03;13.23;;;10.68;;
55784;SDS011;41709;52.536;5.688;2022-08-19T06:01:34;13.40;;;12.00;;
55784;SDS011;41709;52.536;5.688;2022-08-19T06:04:01;14.23;;;11.15;;
55784;SDS011;41709;52.536;5.688;2022-08-19T06:06:27;11.48;;;10.23;;
55784;SDS011;41709;52.536;5.688;2022-08-19T06:08:53;13.85;;;12.00;;
55784;SDS011;41709;52.536;5.688;2022-08-19T06:11:35;13.02;;;11.48;;
55784;SDS011;41709;52.536;5.688;2022-08-19T06:14:03;13.63;;;10.98;;
55784;SDS011;41709;52.536;5.688;2022-08-19T06:16:33;12.13;;;10.73;;
55784;SDS011;41709;52.536;5.688;2022-08-19T06:19:00;13.43;;;12.02;;
55784;SDS011;41709;52.536;5.688;2022-08-19T06:21:29;14.20;;;12.50;;
55784;SDS011;41709;52.536;5.688;2022-08-19T06:23:55;14.07;;;12.57;;
55784;SDS011;41709;52.536;5.688;2022-08-19T06:26:22;15.60;;;13.77;;
55784;SDS011;41709;52.536;5.688;2022-08-19T06:28:49;14.02;;;12.43;;
55784;SDS011;41709;52.536;5.688;2022-08-19T06:31:15;13.88;;;12.38;;
55784;SDS011;41709;52.536;5.688;2022-08-19T06:33:43;15.63;;;13.02;;
55784;SDS011;41709;52.536;5.688;2022-08-19T06:36:43;14.68;;;12.70;;
55784;SDS011;41709;52.536;5.688;2022-08-19T06:39:07;15.48;;;12.65;;
55784;SDS011;41709;52.536;5.688;2022-08-19T06:41:35;15.95;;;13.25;;
55784;SDS011;41709;52.536;5.688;2022-08-19T06:46:29;19.33;;;15.15;;
55784;SDS011;41709;52.536;5.688;2022-08-19T06:48:55;17.25;;;14.65;;
55784;SDS011;41709;52.536;5.688;2022-08-19T06:51:21;18.77;;;15.98;;
55784;SDS011;41709;52.536;5.688;2022-08-19T06:53:49;20.75;;;15.95;;
55784;SDS011;41709;52.536;5.688;2022-08-19T06:56:16;20.38;;;16.52;;
55784;SDS011;41709;52.536;5.688;2022-08-19T06:58:44;20.17;;;15.88;;
55784;SDS011;41709;52.536;5.688;2022-08-19T07:01:11;21.27;;;16.05;;
55784;SDS011;41709;52.536;5.688;2022-08-19T07:03:37;21.10;;;17.83;;
55784;SDS011;41709;52.536;5.688;2022-08-19T07:06:08;24.08;;;17.67;;
55784;SDS011;41709;52.536;5.688;2022-08-19T07:08:36;27.45;;;20.25;;
55784;SDS011;41709;52.536;5.688;2022-08-19T07:11:07;23.85;;;19.20;;
55784;SDS011;41709;52.536;5.688;2022-08-19T07:13:35;27.25;;;20.25;;
55784;SDS011;41709;52.536;5.688;2022-08-19T07:16:08;23.90;;;17.73;;
55784;SDS011;41709;52.536;5.688;2022-08-19T07:18:35;31.60;;;19.98;;
55784;SDS011;41709;52.536;5.688;2022-08-19T07:21:02;27.15;;;19.33;;
55784;SDS011;41709;52.536;5.688;2022-08-19T07:23:41;25.17;;;19.10;;
55784;SDS011;41709;52.536;5.688;2022-08-19T07:26:09;26.17;;;19.10;;
55784;SDS011;41709;52.536;5.688;2022-08-19T07:28:40;28.38;;;21.33;;
55784;SDS011;41709;52.536;5.688;2022-08-19T07:31:09;24.70;;;19.25;;
55784;SDS011;41709;52.536;5.688;2022-08-19T07:33:37;28.92;;;19.75;;
55784;SDS011;41709;52.536;5.688;2022-08-19T07:36:04;28.70;;;21.60;;
55784;SDS011;41709;52.536;5.688;2022-08-19T07:38:32;29.17;;;21.13;;
55784;SDS011;41709;52.536;5.688;2022-08-19T07:40:58;29.00;;;20.05;;
55784;SDS011;41709;52.536;5.688;2022-08-19T07:43:25;26.13;;;19.05;;
55784;SDS011;41709;52.536;5.688;2022-08-19T07:45:52;31.85;;;21.65;;
55784;SDS011;41709;52.536;5.688;2022-08-19T07:48:21;29.48;;;21.05;;
55784;SDS011;41709;52.536;5.688;2022-08-19T07:50:55;30.63;;;21.65;;
55784;SDS011;41709;52.536;5.688;2022-08-19T07:53:24;31.23;;;22.60;;
55784;SDS011;41709;52.536;5.688;2022-08-19T07:55:50;36.42;;;22.65;;
55784;SDS011;41709;52.536;5.688;2022-08-19T07:58:17;37.58;;;23.50;;
55784;SDS011;41709;52.536;5.688;2022-08-19T08:00:45;36.67;;;23.30;;
55784;SDS011;41709;52.536;5.688;2022-08-19T08:03:14;35.83;;;23.33;;
55784;SDS011;41709;52.536;5.688;2022-08-19T08:05:41;32.45;;;20.75;;
55784;SDS011;41709;52.536;5.688;2022-08-19T08:08:26;30.75;;;20.88;;
55784;SDS011;41709;52.536;5.688;2022-08-19T08:11:11;30.85;;;21.95;;
55784;SDS011;41709;52.536;5.688;2022-08-19T08:13:37;38.35;;;22.55;;
55784;SDS011;41709;52.536;5.688;2022-08-19T08:16:03;30.83;;;24.77;;
55784;SDS011;41709;52.536;5.688;2022-08-19T08:18:29;34.42;;;23.02;;
55784;SDS011;41709;52.536;5.688;2022-08-19T08:20:55;29.60;;;22.27;;
55784;SDS011;41709;52.536;5.688;2022-08-19T08:23:22;36.13;;;24.95;;
55784;SDS011;41709;52.536;5.688;2022-08-19T08:25:49;34.38;;;23.35;;
55784;SDS011;41709;52.536;5.688;2022-08-19T08:28:20;32.70;;;23.23;;
55784;SDS011;41709;52.536;5.688;2022-08-19T08:30:47;28.08;;;22.38;;
55784;SDS011;41709;52.536;5.688;2022-08-19T08:33:14;32.28;;;23.75;;
55784;SDS011;41709;52.536;5.688;2022-08-19T08:35:44;33.38;;;24.02;;
55784;SDS011;41709;52.536;5.688;2022-08-19T08:38:10;31.48;;;23.67;;
55784;SDS011;41709;52.536;5.688;2022-08-19T08:40:39;36.13;;;25.40;;
55784;SDS011;41709;52.536;5.688;2022-08-19T08:45:47;34.60;;;22.73;;
55784;SDS011;41709;52.536;5.688;2022-08-19T08:48:35;33.15;;;24.42;;
55784;SDS011;41709;52.536;5.688;2022-08-19T08:51:10;28.15;;;21.73;;
55784;SDS011;41709;52.536;5.688;2022-08-19T08:53:58;30.30;;;22.50;;
55784;SDS011;41709;52.536;5.688;2022-08-19T08:56:25;29.85;;;22.20;;
55784;SDS011;41709;52.536;5.688;2022-08-19T08:58:58;30.65;;;20.85;;
55784;SDS011;41709;52.536;5.688;2022-08-19T09:01:33;31.65;;;22.27;;
55784;SDS011;41709;52.536;5.688;2022-08-19T09:03:59;30.48;;;20.88;;
55784;SDS011;41709;52.536;5.688;2022-08-19T09:06:31;31.00;;;21.50;;
55784;SDS011;41709;52.536;5.688;2022-08-19T09:12:21;33.97;;;22.80;;
55784;SDS011;41709;52.536;5.688;2022-08-19T09:15:10;27.27;;;21.08;;
55784;SDS011;41709;52.536;5.688;2022-08-19T09:17:38;30.15;;;20.48;;
55784;SDS011;41709;52.536;5.688;2022-08-19T09:20:08;30.30;;;20.95;;
55784;SDS011;41709;52.536;5.688;2022-08-19T09:22:46;29.70;;;19.27;;
55784;SDS011;41709;52.536;5.688;2022-08-19T09:25:13;34.75;;;20.25;;
55784;SDS011;41709;52.536;5.688;2022-08-19T09:27:42;29.05;;;20.00;;
55784;SDS011;41709;52.536;5.688;2022-08-19T09:30:13;32.60;;;21.25;;
55784;SDS011;41709;52.536;5.688;2022-08-19T09:32:43;25.58;;;19.77;;
55784;SDS011;41709;52.536;5.688;2022-08-19T09:35:10;31.63;;;21.70;;
55784;SDS011;41709;52.536;5.688;2022-08-19T09:37:37;28.17;;;19.98;;
55784;SDS011;41709;52.536;5.688;2022-08-19T09:40:03;29.63;;;20.30;;
55784;SDS011;41709;52.536;5.688;2022-08-19T09:42:29;29.40;;;20.40;;
55784;SDS011;41709;52.536;5.688;2022-08-19T09:44:54;30.15;;;20.65;;
55784;SDS011;41709;52.536;5.688;2022-08-19T09:47:20;32.17;;;21.95;;
55784;SDS011;41709;52.536;5.688;2022-08-19T09:49:45;35.35;;;23.38;;
55784;SDS011;41709;52.536;5.688;2022-08-19T09:52:13;30.67;;;20.52;;
55784;SDS011;41709;52.536;5.688;2022-08-19T09:54:41;29.02;;;20.27;;
55784;SDS011;41709;52.536;5.688;2022-08-19T09:57:07;30.77;;;21.50;;
55784;SDS011;41709;52.536;5.688;2022-08-19T09:59:33;34.25;;;21.42;;
55784;SDS011;41709;52.536;5.688;2022-08-19T10:01:59;31.83;;;21.27;;
55784;SDS011;41709;52.536;5.688;2022-08-19T10:04:24;33.28;;;20.80;;
55784;SDS011;41709;52.536;5.688;2022-08-19T10:07:10;31.30;;;20.33;;
55784;SDS011;41709;52.536;5.688;2022-08-19T10:09:36;30.30;;;20.33;;
55784;SDS011;41709;52.536;5.688;2022-08-19T10:12:02;25.95;;;18.88;;
55784;SDS011;41709;52.536;5.688;2022-08-19T10:14:29;28.83;;;19.45;;
55784;SDS011;41709;52.536;5.688;2022-08-19T10:16:56;28.80;;;17.15;;
55784;SDS011;41709;52.536;5.688;2022-08-19T10:19:22;29.02;;;19.92;;
55784;SDS011;41709;52.536;5.688;2022-08-19T10:21:47;28.73;;;20.08;;
55784;SDS011;41709;52.536;5.688;2022-08-19T10:24:13;33.38;;;19.98;;
55784;SDS011;41709;52.536;5.688;2022-08-19T10:26:39;30.17;;;21.88;;
55784;SDS011;41709;52.536;5.688;2022-08-19T10:29:10;29.75;;;21.38;;
55784;SDS011;41709;52.536;5.688;2022-08-19T10:31:36;30.00;;;21.90;;
55784;SDS011;41709;52.536;5.688;2022-08-19T10:34:02;31.50;;;21.38;;
55784;SDS011;41709;52.536;5.688;2022-08-19T10:36:32;31.38;;;21.20;;
55784;SDS011;41709;52.536;5.688;2022-08-19T10:39:02;34.25;;;22.13;;
55784;SDS011;41709;52.536;5.688;2022-08-19T10:41:31;36.00;;;23.08;;
55784;SDS011;41709;52.536;5.688;2022-08-19T10:44:03;33.30;;;23.73;;
55784;SDS011;41709;52.536;5.688;2022-08-19T10:46:31;28.20;;;19.55;;
55784;SDS011;41709;52.536;5.688;2022-08-19T10:48:59;27.42;;;22.15;;
55784;SDS011;41709;52.536;5.688;2022-08-19T10:51:26;26.60;;;19.38;;
55784;SDS011;41709;52.536;5.688;2022-08-19T10:54:10;27.33;;;21.92;;
55784;SDS011;41709;52.536;5.688;2022-08-19T10:56:36;32.33;;;20.50;;
55784;SDS011;41709;52.536;5.688;2022-08-19T10:59:17;30.00;;;20.02;;
55784;SDS011;41709;52.536;5.688;2022-08-19T11:01:48;31.88;;;21.70;;
55784;SDS011;41709;52.536;5.688;2022-08-19T11:04:14;42.28;;;24.75;;
55784;SDS011;41709;52.536;5.688;2022-08-19T11:06:42;31.27;;;22.08;;
55784;SDS011;41709;52.536;5.688;2022-08-19T11:09:10;27.95;;;20.75;;
55784;SDS011;41709;52.536;5.688;2022-08-19T11:11:37;25.40;;;19.38;;
55784;SDS011;41709;52.536;5.688;2022-08-19T11:14:09;29.83;;;21.77;;
55784;SDS011;41709;52.536;5.688;2022-08-19T11:16:36;32.10;;;21.85;;
55784;SDS011;41709;52.536;5.688;2022-08-19T11:19:03;31.17;;;22.15;;
55784;SDS011;41709;52.536;5.688;2022-08-19T11:21:31;28.13;;;21.50;;
55784;SDS011;41709;52.536;5.688;2022-08-19T11:24:00;28.40;;;20.20;;
55784;SDS011;41709;52.536;5.688;2022-08-19T11:26:31;30.00;;;19.95;;
55784;SDS011;41709;52.536;5.688;2022-08-19T11:28:57;29.88;;;24.55;;
55784;SDS011;41709;52.536;5.688;2022-08-19T11:31:25;27.90;;;20.33;;
55784;SDS011;41709;52.536;5.688;2022-08-19T11:33:52;26.60;;;21.35;;
55784;SDS011;41709;52.536;5.688;2022-08-19T11:36:19;28.98;;;22.55;;
55784;SDS011;41709;52.536;5.688;2022-08-19T11:38:46;25.35;;;19.50;;
55784;SDS011;41709;52.536;5.688;2022-08-19T11:41:13;28.98;;;22.80;;
55784;SDS011;41709;52.536;5.688;2022-08-19T11:43:40;25.80;;;20.08;;
55784;SDS011;41709;52.536;5.688;2022-08-19T11:46:07;33.05;;;21.48;;
55784;SDS011;41709;52.536;5.688;2022-08-19T11:48:36;26.67;;;20.95;;
55784;SDS011;41709;52.536;5.688;2022-08-19T11:51:09;29.48;;;21.88;;
55784;SDS011;41709;52.536;5.688;2022-08-19T11:53:38;28.60;;;22.35;;
55784;SDS011;41709;52.536;5.688;2022-08-19T11:56:04;32.60;;;21.00;;
55784;SDS011;41709;52.536;5.688;2022-08-19T11:58:31;28.50;;;19.60;;
55784;SDS011;41709;52.536;5.688;2022-08-19T12:00:56;26.17;;;20.90;;
55784;SDS011;41709;52.536;5.688;2022-08-19T12:03:22;23.50;;;20.90;;
55784;SDS011;41709;52.536;5.688;2022-08-19T12:05:48;24.83;;;19.42;;
55784;SDS011;41709;52.536;5.688;2022-08-19T12:08:14;30.75;;;20.88;;
55784;SDS011;41709;52.536;5.688;2022-08-19T12:10:41;27.40;;;20.17;;
55784;SDS011;41709;52.536;5.688;2022-08-19T12:13:08;27.85;;;20.48;;
55784;SDS011;41709;52.536;5.688;2022-08-19T12:15:37;25.73;;;20.90;;
55784;SDS011;41709;52.536;5.688;2022-08-19T12:18:05;25.35;;;21.27;;
55784;SDS011;41709;52.536;5.688;2022-08-19T12:20:33;29.33;;;20.77;;
55784;SDS011;41709;52.536;5.688;2022-08-19T12:23:04;26.75;;;22.83;;
55784;SDS011;41709;52.536;5.688;2022-08-19T12:25:31;25.75;;;22.00;;
55784;SDS011;41709;52.536;5.688;2022-08-19T12:27:58;27.02;;;20.52;;
55784;SDS011;41709;52.536;5.688;2022-08-19T12:30:23;30.08;;;24.73;;
55784;SDS011;41709;52.536;5.688;2022-08-19T12:32:50;27.30;;;21.33;;
55784;SDS011;41709;52.536;5.688;2022-08-19T12:35:16;30.88;;;24.67;;
55784;SDS011;41709;52.536;5.688;2022-08-19T12:37:44;29.73;;;23.08;;
55784;SDS011;41709;52.536;5.688;2022-08-19T12:40:11;26.92;;;18.23;;
55784;SDS011;41709;52.536;5.688;2022-08-19T12:42:38;27.65;;;15.25;;
55784;SDS011;41709;52.536;5.688;2022-08-19T12:45:07;21.67;;;15.45;;
55784;SDS011;41709;52.536;5.688;2022-08-19T12:47:34;20.80;;;15.85;;
55784;SDS011;41709;52.536;5.688;2022-08-19T12:50:00;18.90;;;14.90;;
55784;SDS011;41709;52.536;5.688;2022-08-19T12:52:26;21.50;;;18.23;;
55784;SDS011;41709;52.536;5.688;2022-08-19T12:54:53;25.35;;;18.63;;
55784;SDS011;41709;52.536;5.688;2022-08-19T12:57:21;21.20;;;17.30;;
55784;SDS011;41709;52.536;5.688;2022-08-19T12:59:51;26.67;;;17.25;;
55784;SDS011;41709;52.536;5.688;2022-08-19T13:04:44;26.77;;;18.50;;
55784;SDS011;41709;52.536;5.688;2022-08-19T13:07:10;22.35;;;19.10;;
55784;SDS011;41709;52.536;5.688;2022-08-19T13:09:35;23.17;;;18.75;;
55784;SDS011;41709;52.536;5.688;2022-08-19T13:12:02;23.05;;;15.52;;
55784;SDS011;41709;52.536;5.688;2022-08-19T13:14:28;20.50;;;13.82;;
55784;SDS011;41709;52.536;5.688;2022-08-19T13:16:56;16.02;;;12.88;;
55784;SDS011;41709;52.536;5.688;2022-08-19T13:19:22;15.00;;;12.88;;
55784;SDS011;41709;52.536;5.688;2022-08-19T13:21:49;14.13;;;12.63;;
55784;SDS011;41709;52.536;5.688;2022-08-19T13:24:16;15.18;;;11.70;;
55784;SDS011;41709;52.536;5.688;2022-08-19T13:26:42;12.23;;;8.80;;
55784;SDS011;41709;52.536;5.688;2022-08-19T13:29:07;11.68;;;8.52;;
55784;SDS011;41709;52.536;5.688;2022-08-19T13:31:51;11.65;;;7.75;;
55784;SDS011;41709;52.536;5.688;2022-08-19T13:34:36;10.75;;;8.73;;
55784;SDS011;41709;52.536;5.688;2022-08-19T13:37:02;9.02;;;7.72;;
55784;SDS011;41709;52.536;5.688;2022-08-19T13:39:29;10.45;;;8.38;;
55784;SDS011;41709;52.536;5.688;2022-08-19T13:41:59;12.20;;;8.43;;
55784;SDS011;41709;52.536;5.688;2022-08-19T13:44:25;12.00;;;8.93;;
55784;SDS011;41709;52.536;5.688;2022-08-19T13:46:54;9.98;;;8.57;;
55784;SDS011;41709;52.536;5.688;2022-08-19T13:49:25;11.15;;;9.65;;
55784;SDS011;41709;52.536;5.688;2022-08-19T13:51:52;14.13;;;9.77;;
55784;SDS011;41709;52.536;5.688;2022-08-19T13:54:18;13.32;;;10.48;;
55784;SDS011;41709;52.536;5.688;2022-08-19T13:56:44;13.32;;;10.27;;
55784;SDS011;41709;52.536;5.688;2022-08-19T13:59:10;12.55;;;10.60;;
55784;SDS011;41709;52.536;5.688;2022-08-19T14:01:36;16.27;;;11.55;;
55784;SDS011;41709;52.536;5.688;2022-08-19T14:04:03;16.90;;;12.65;;
55784;SDS011;41709;52.536;5.688;2022-08-19T14:06:30;16.60;;;11.95;;
55784;SDS011;41709;52.536;5.688;2022-08-19T14:08:55;17.13;;;11.50;;
55784;SDS011;41709;52.536;5.688;2022-08-19T14:11:21;13.32;;;11.73;;
55784;SDS011;41709;52.536;5.688;2022-08-19T14:13:47;16.60;;;12.00;;
55784;SDS011;41709;52.536;5.688;2022-08-19T14:16:13;16.10;;;11.85;;
55784;SDS011;41709;52.536;5.688;2022-08-19T14:18:39;13.77;;;10.73;;
55784;SDS011;41709;52.536;5.688;2022-08-19T14:21:06;11.27;;;10.05;;
55784;SDS011;41709;52.536;5.688;2022-08-19T14:23:32;13.80;;;11.15;;
55784;SDS011;41709;52.536;5.688;2022-08-19T14:26:06;15.68;;;11.15;;
55784;SDS011;41709;52.536;5.688;2022-08-19T14:28:34;14.80;;;10.45;;
55784;SDS011;41709;52.536;5.688;2022-08-19T14:31:00;12.98;;;10.70;;
55784;SDS011;41709;52.536;5.688;2022-08-19T14:33:25;16.90;;;11.25;;
55784;SDS011;41709;52.536;5.688;2022-08-19T14:35:51;11.82;;;9.60;;
55784;SDS011;41709;52.536;5.688;2022-08-19T14:38:17;12.75;;;9.73;;
55784;SDS011;41709;52.536;5.688;2022-08-19T14:40:43;14.40;;;11.35;;
55784;SDS011;41709;52.536;5.688;2022-08-19T14:43:09;16.38;;;10.85;;
55784;SDS011;41709;52.536;5.688;2022-08-19T14:45:35;13.68;;;11.10;;
55784;SDS011;41709;52.536;5.688;2022-08-19T14:48:03;15.95;;;11.43;;